createdAt,value
2022-10-13T00:01:46.432Z,10.63
2022-10-13T00:04:12.852Z,10.63
2022-10-13T00:06:39.277Z,10.61
2022-10-13T00:09:05.764Z,10.59
2022-10-13T00:11:32.301Z,10.60
2022-10-13T00:14:01.423Z,10.56
2022-10-13T00:16:31.145Z,10.60
2022-10-13T00:18:57.746Z,10.58
2022-10-13T00:21:26.232Z,10.58
2022-10-13T00:23:53.997Z,10.58
2022-10-13T00:26:22.673Z,10.56
2022-10-13T00:28:52.616Z,10.55
2022-10-13T00:31:22.103Z,10.58
2022-10-13T00:33:49.373Z,10.57
2022-10-13T00:36:18.313Z,10.56
2022-10-13T00:38:45.257Z,10.58
2022-10-13T00:41:12.159Z,10.56
2022-10-13T00:44:26.714Z,10.55
2022-10-13T00:46:53.167Z,10.55
2022-10-13T00:49:19.671Z,10.57
2022-10-13T00:51:49.194Z,10.54
2022-10-13T00:54:24.601Z,10.56
2022-10-13T00:56:52.266Z,10.56
2022-10-13T00:59:23.246Z,10.57
2022-10-13T01:01:52.890Z,10.52
2022-10-13T01:04:22.628Z,10.51
2022-10-13T01:06:49.481Z,10.54
2022-10-13T01:09:16.036Z,10.52
2022-10-13T01:11:58.022Z,10.54
2022-10-13T01:14:38.653Z,10.52
2022-10-13T01:17:47.983Z,10.50
2022-10-13T01:20:50.388Z,10.50
2022-10-13T01:23:30.371Z,10.52
2022-10-13T01:26:43.953Z,10.48
2022-10-13T01:29:44.991Z,10.48
2022-10-13T01:32:29.762Z,10.46
2022-10-13T01:35:06.831Z,10.45
2022-10-13T01:37:44.853Z,10.50
2022-10-13T01:40:36.273Z,10.49
2022-10-13T01:43:06.952Z,10.50
2022-10-13T01:45:42.394Z,10.48
2022-10-13T01:48:11.892Z,10.49
2022-10-13T01:50:40.780Z,10.49
2022-10-13T01:53:08.474Z,10.49
2022-10-13T01:55:34.895Z,10.47
2022-10-13T01:58:01.301Z,10.49
2022-10-13T02:00:37.759Z,10.48
2022-10-13T02:03:17.833Z,10.48
2022-10-13T02:05:49.523Z,10.49
2022-10-13T02:08:37.682Z,10.46
2022-10-13T02:11:21.914Z,10.42
2022-10-13T02:14:14.714Z,10.45
2022-10-13T02:16:43.835Z,10.46
2022-10-13T02:19:15.343Z,10.44
2022-10-13T02:21:44.178Z,10.40
2022-10-13T02:24:11.142Z,10.41
2022-10-13T02:26:38.259Z,10.41
2022-10-13T02:29:14.073Z,10.40
2022-10-13T02:31:41.565Z,10.39
2022-10-13T02:34:08.452Z,10.37
2022-10-13T02:36:35.309Z,10.34
2022-10-13T02:39:01.734Z,10.35
2022-10-13T02:41:28.147Z,10.34
2022-10-13T02:43:54.526Z,10.33
2022-10-13T02:46:24.945Z,10.32
2022-10-13T02:48:51.482Z,10.31
2022-10-13T02:51:17.889Z,10.27
2022-10-13T02:53:44.300Z,10.27
2022-10-13T02:56:10.800Z,10.25
2022-10-13T02:58:37.214Z,10.25
2022-10-13T03:01:12.880Z,10.23
2022-10-13T03:03:39.930Z,10.19
2022-10-13T03:06:06.789Z,10.19
2022-10-13T03:08:34.821Z,10.17
2022-10-13T03:11:01.730Z,10.18
2022-10-13T03:13:28.136Z,10.18
2022-10-13T03:16:00.137Z,10.15
2022-10-13T03:18:26.537Z,10.14
2022-10-13T03:21:01.611Z,10.11
2022-10-13T03:23:28.450Z,10.11
2022-10-13T03:25:55.520Z,10.12
2022-10-13T03:28:22.858Z,10.09
2022-10-13T03:30:51.277Z,10.06
2022-10-13T03:33:17.629Z,10.03
2022-10-13T03:35:44.126Z,10.06
2022-10-13T03:38:10.537Z,10.01
2022-10-13T03:40:37.324Z,10.02
2022-10-13T03:43:03.750Z,10.03
2022-10-13T03:45:31.302Z,10.00
2022-10-13T03:47:58.173Z,10.00
2022-10-13T03:50:24.617Z,9.99
2022-10-13T03:52:51.023Z,9.94
2022-10-13T03:55:17.485Z,9.96
2022-10-13T03:57:43.861Z,9.94
2022-10-13T04:00:11.239Z,9.94
2022-10-13T04:02:39.052Z,9.90
2022-10-13T04:05:05.859Z,9.93
2022-10-13T04:07:32.261Z,9.89
2022-10-13T04:10:06.057Z,9.89
2022-10-13T04:12:36.164Z,9.88
2022-10-13T04:15:02.624Z,9.88
2022-10-13T04:17:28.997Z,9.85
2022-10-13T04:19:55.405Z,9.85
2022-10-13T04:22:22.076Z,9.84
2022-10-13T04:24:48.865Z,9.82
2022-10-13T04:27:16.903Z,9.81
2022-10-13T04:29:43.354Z,9.81
2022-10-13T04:32:09.844Z,9.81
2022-10-13T04:34:36.246Z,9.82
2022-10-13T04:37:02.828Z,9.83
2022-10-13T04:39:29.287Z,9.82
2022-10-13T04:41:55.800Z,9.82
2022-10-13T04:44:22.204Z,9.81
2022-10-13T04:46:48.602Z,9.80
2022-10-13T04:49:16.741Z,9.80
2022-10-13T04:51:43.306Z,9.81
2022-10-13T04:54:10.087Z,9.79
2022-10-13T04:56:36.747Z,9.81
2022-10-13T04:59:07.756Z,9.79
2022-10-13T05:01:35.927Z,9.76
2022-10-13T05:04:06.069Z,9.78
2022-10-13T05:06:53.357Z,9.79
2022-10-13T05:09:24.083Z,9.74
2022-10-13T05:11:50.531Z,9.76
2022-10-13T05:14:16.978Z,9.77
2022-10-13T05:16:43.342Z,9.76
2022-10-13T05:19:09.959Z,9.65
2022-10-13T05:21:36.327Z,9.75
2022-10-13T05:24:02.853Z,9.75
2022-10-13T05:26:31.853Z,9.75
2022-10-13T05:28:59.998Z,9.74
2022-10-13T05:31:31.271Z,9.71
2022-10-13T05:33:59.726Z,9.74
2022-10-13T05:36:34.323Z,9.72
2022-10-13T05:39:03.998Z,9.71
2022-10-13T05:41:30.998Z,9.68
2022-10-13T05:44:02.857Z,9.67
2022-10-13T05:46:29.285Z,9.66
2022-10-13T05:48:55.702Z,9.65
2022-10-13T05:51:27.284Z,9.64
2022-10-13T05:54:01.238Z,9.65
2022-10-13T05:56:35.122Z,9.62
2022-10-13T05:59:04.349Z,9.61
2022-10-13T06:01:34.070Z,9.61
2022-10-13T06:04:05.402Z,9.60
2022-10-13T06:06:32.529Z,9.59
2022-10-13T06:09:00.951Z,9.59
2022-10-13T06:11:27.793Z,9.59
2022-10-13T06:13:54.209Z,9.59
2022-10-13T06:16:20.651Z,9.55
2022-10-13T06:18:47.683Z,9.58
2022-10-13T06:21:14.242Z,9.53
2022-10-13T06:23:40.779Z,9.60
2022-10-13T06:26:08.893Z,9.60
2022-10-13T06:28:36.998Z,9.58
2022-10-13T06:31:06.373Z,9.61
2022-10-13T06:33:33.014Z,9.60
2022-10-13T06:36:06.599Z,9.59
2022-10-13T06:38:33.429Z,9.56
2022-10-13T06:41:04.659Z,9.63
2022-10-13T06:43:38.912Z,9.60
2022-10-13T06:46:10.425Z,9.65
2022-10-13T06:48:36.809Z,9.60
2022-10-13T06:51:08.847Z,9.63
2022-10-13T06:53:35.561Z,9.66
2022-10-13T06:56:03.687Z,9.67
2022-10-13T06:58:30.884Z,9.69
2022-10-13T07:00:57.384Z,9.71
2022-10-13T07:03:25.101Z,9.73
2022-10-13T07:05:51.515Z,9.73
2022-10-13T07:08:17.973Z,9.75
2022-10-13T07:10:44.700Z,9.77
2022-10-13T07:13:11.165Z,9.78
2022-10-13T07:15:40.866Z,9.80
2022-10-13T07:18:07.599Z,9.81
2022-10-13T07:20:34.396Z,9.83
2022-10-13T07:23:00.782Z,9.86
2022-10-13T07:25:27.265Z,9.85
2022-10-13T07:27:53.753Z,9.91
2022-10-13T07:30:20.222Z,9.93
2022-10-13T07:32:47.887Z,9.93
2022-10-13T07:35:14.378Z,9.94
2022-10-13T07:37:40.811Z,9.98
2022-10-13T07:40:07.821Z,9.97
2022-10-13T07:42:34.612Z,10.03
2022-10-13T07:45:01.008Z,10.06
2022-10-13T07:47:28.722Z,10.09
2022-10-13T07:49:55.687Z,10.10
2022-10-13T07:52:22.679Z,10.13
2022-10-13T07:54:50.242Z,10.12
2022-10-13T07:57:16.780Z,10.16
2022-10-13T07:59:43.283Z,10.19
2022-10-13T08:02:12.789Z,10.21
2022-10-13T08:04:39.358Z,10.23
2022-10-13T08:07:06.813Z,10.27
2022-10-13T08:09:33.619Z,10.29
2022-10-13T08:12:01.820Z,10.36
2022-10-13T08:14:29.371Z,10.38
2022-10-13T08:16:56.602Z,10.42
2022-10-13T08:19:26.202Z,10.47
2022-10-13T08:22:00.413Z,10.50
2022-10-13T08:24:27.766Z,10.53
2022-10-13T08:26:54.401Z,10.54
2022-10-13T08:29:22.894Z,10.60
2022-10-13T08:31:51.596Z,10.64
2022-10-13T08:34:18.427Z,10.68
2022-10-13T08:36:44.861Z,10.72
2022-10-13T08:39:11.613Z,10.76
2022-10-13T08:41:40.954Z,10.81
2022-10-13T08:47:26.845Z,10.87
2022-10-13T08:50:00.779Z,10.90
2022-10-13T08:52:41.906Z,10.92
2022-10-13T08:55:20.639Z,10.99
2022-10-13T08:57:47.140Z,11.03
2022-10-13T09:00:13.806Z,11.06
2022-10-13T09:02:43.622Z,11.13
2022-10-13T09:05:29.581Z,11.16
2022-10-13T09:08:11.717Z,11.18
2022-10-13T09:10:47.846Z,11.22
2022-10-13T09:13:18.406Z,11.30
2022-10-13T09:15:47.297Z,11.34
2022-10-13T09:18:16.331Z,11.39
2022-10-13T09:20:42.808Z,11.43
2022-10-13T09:23:22.449Z,11.47
2022-10-13T09:25:54.019Z,11.51
2022-10-13T09:28:31.692Z,11.54
2022-10-13T09:31:28.770Z,11.59
2022-10-13T09:34:03.422Z,11.65
2022-10-13T09:36:30.890Z,11.70
2022-10-13T09:39:12.357Z,11.71
2022-10-13T09:41:40.557Z,11.78
2022-10-13T09:44:11.917Z,11.82
2022-10-13T09:46:50.704Z,11.85
2022-10-13T09:49:41.349Z,11.88
2022-10-13T09:52:17.337Z,11.92
2022-10-13T09:54:48.389Z,11.98
2022-10-13T09:57:30.931Z,12.02
2022-10-13T10:00:04.652Z,12.07
2022-10-13T10:02:46.843Z,12.09
2022-10-13T10:05:41.871Z,12.14
2022-10-13T10:08:28.779Z,12.19
2022-10-13T10:11:03.308Z,12.22
2022-10-13T10:13:29.825Z,12.27
2022-10-13T10:16:15.174Z,12.30
2022-10-13T10:19:06.036Z,12.34
2022-10-13T10:21:56.795Z,12.38
2022-10-13T10:24:36.881Z,12.42
2022-10-13T10:27:24.857Z,12.46
2022-10-13T10:29:59.604Z,12.56
2022-10-13T10:32:51.113Z,12.58
2022-10-13T10:35:32.062Z,12.65
2022-10-13T10:38:13.795Z,12.72
2022-10-13T10:40:59.161Z,12.76
2022-10-13T10:43:43.209Z,12.82
2022-10-13T10:46:16.702Z,12.85
2022-10-13T10:48:45.203Z,12.90
2022-10-13T10:51:12.911Z,12.94
2022-10-13T10:53:44.950Z,12.98
2022-10-13T10:56:27.704Z,13.01
2022-10-13T10:59:05.038Z,13.05
2022-10-13T11:01:39.878Z,13.09
2022-10-13T11:04:25.438Z,13.09
2022-10-13T11:06:51.942Z,13.17
2022-10-13T11:09:57.274Z,13.17
2022-10-13T11:12:25.271Z,13.20
2022-10-13T11:14:54.810Z,13.29
2022-10-13T11:17:29.397Z,13.32
2022-10-13T11:19:57.219Z,13.37
2022-10-13T11:22:25.532Z,13.37
2022-10-13T11:24:54.621Z,13.45
2022-10-13T11:27:32.951Z,13.47
2022-10-13T11:30:01.037Z,13.53
2022-10-13T11:32:27.470Z,13.56
2022-10-13T11:35:20.367Z,13.57
2022-10-13T11:38:07.282Z,13.63
2022-10-13T11:40:39.870Z,13.71
2022-10-13T11:43:41.643Z,13.71
2022-10-13T11:46:21.665Z,13.77
2022-10-13T11:49:07.623Z,13.80
2022-10-13T11:51:48.186Z,13.86
2022-10-13T11:54:49.118Z,13.84
2022-10-13T11:57:27.472Z,13.92
2022-10-13T11:59:55.929Z,13.97
2022-10-13T12:02:28.922Z,13.94
2022-10-13T12:05:25.211Z,14.03
2022-10-13T12:07:54.617Z,14.12
2022-10-13T12:10:33.730Z,14.15
2022-10-13T12:13:01.024Z,14.19
2022-10-13T12:15:43.986Z,14.23
2022-10-13T12:18:46.790Z,14.28
2022-10-13T12:21:20.089Z,14.34
2022-10-13T12:23:51.507Z,14.35
2022-10-13T12:26:24.286Z,14.42
2022-10-13T12:28:53.222Z,14.39
2022-10-13T12:31:26.663Z,14.48
2022-10-13T12:34:01.517Z,14.53
2022-10-13T12:36:34.258Z,14.54
2022-10-13T12:39:04.971Z,14.61
2022-10-13T12:41:37.101Z,14.61
2022-10-13T12:44:06.731Z,14.69
2022-10-13T12:46:47.326Z,14.70
2022-10-13T12:49:24.585Z,14.73
2022-10-13T12:52:08.831Z,14.73
2022-10-13T12:54:38.769Z,14.76
2022-10-13T12:57:35.228Z,14.77
2022-10-13T13:00:03.805Z,14.81
2022-10-13T13:02:32.570Z,14.82
2022-10-13T13:04:59.330Z,14.81
2022-10-13T13:07:36.987Z,14.87
2022-10-13T13:10:15.504Z,14.89
2022-10-13T13:12:42.900Z,14.90
2022-10-13T13:15:21.465Z,14.91
2022-10-13T13:18:03.288Z,14.95
2022-10-13T13:20:34.749Z,14.99
2022-10-13T13:23:01.480Z,15.00
2022-10-13T13:25:28.042Z,15.03
2022-10-13T13:27:54.567Z,15.01
2022-10-13T13:30:23.282Z,15.06
2022-10-13T13:32:50.420Z,15.09
2022-10-13T13:35:17.353Z,15.07
2022-10-13T13:37:49.599Z,15.10
2022-10-13T13:40:22.805Z,15.13
2022-10-13T13:42:49.332Z,15.13
2022-10-13T13:45:17.736Z,15.17
2022-10-13T13:47:44.224Z,15.19
2022-10-13T13:50:20.828Z,15.20
2022-10-13T13:52:56.117Z,15.20
2022-10-13T13:55:23.258Z,15.24
2022-10-13T13:57:49.755Z,15.23
2022-10-13T14:00:16.839Z,15.26
2022-10-13T14:02:47.037Z,15.28
2022-10-13T14:05:13.714Z,15.26
2022-10-13T14:07:40.612Z,15.29
2022-10-13T14:10:08.174Z,15.30
2022-10-13T14:12:34.791Z,15.32
2022-10-13T14:15:01.238Z,15.31
2022-10-13T14:17:28.174Z,15.35
2022-10-13T14:19:56.168Z,15.31
2022-10-13T14:22:23.163Z,15.36
2022-10-13T14:24:49.808Z,15.32
2022-10-13T14:27:16.377Z,15.36
2022-10-13T14:29:42.985Z,15.34
2022-10-13T14:32:09.440Z,15.38
2022-10-13T14:34:35.886Z,15.41
2022-10-13T14:37:02.355Z,15.39
2022-10-13T14:39:28.789Z,15.42
2022-10-13T14:41:55.291Z,15.38
2022-10-13T14:44:21.681Z,15.44
2022-10-13T14:46:48.123Z,15.45
2022-10-13T14:49:14.514Z,15.45
2022-10-13T14:51:42.544Z,15.47
2022-10-13T14:54:09.049Z,15.47
2022-10-13T14:56:35.959Z,15.49
2022-10-13T14:59:05.989Z,15.49
2022-10-13T15:01:40.154Z,15.47
2022-10-13T15:04:07.207Z,15.52
2022-10-13T15:06:34.910Z,15.52
2022-10-13T15:09:01.552Z,15.54
2022-10-13T15:11:27.980Z,15.53
2022-10-13T15:13:54.519Z,15.53
2022-10-13T15:16:23.806Z,15.54
2022-10-13T15:18:50.485Z,15.57
2022-10-13T15:21:17.587Z,15.58
2022-10-13T15:23:44.099Z,15.54
2022-10-13T15:26:12.314Z,15.60
2022-10-13T15:28:44.875Z,15.60
2022-10-13T15:31:13.387Z,15.52
2022-10-13T15:33:43.896Z,15.53
2022-10-13T15:36:10.302Z,15.57
2022-10-13T15:38:39.783Z,15.57
2022-10-13T15:41:07.148Z,15.58
2022-10-13T15:43:34.260Z,15.58
2022-10-13T15:46:04.630Z,15.61
2022-10-13T15:48:32.411Z,15.62
2022-10-13T15:50:58.863Z,15.63
2022-10-13T15:53:25.365Z,15.59
2022-10-13T15:55:52.095Z,15.60
2022-10-13T15:58:18.714Z,15.61
2022-10-13T16:00:45.334Z,15.61
2022-10-13T16:03:17.667Z,15.60
2022-10-13T16:05:45.990Z,15.56
2022-10-13T16:08:13.262Z,15.59
2022-10-13T16:10:41.387Z,15.56
2022-10-13T16:13:08.497Z,15.58
2022-10-13T16:15:35.379Z,15.58
2022-10-13T16:18:02.246Z,15.57
2022-10-13T16:20:34.205Z,15.54
2022-10-13T16:23:01.351Z,15.55
2022-10-13T16:25:28.145Z,15.55
2022-10-13T16:28:01.833Z,15.49
2022-10-13T16:30:30.369Z,15.53
2022-10-13T16:32:57.152Z,15.52
2022-10-13T16:35:23.798Z,15.52
2022-10-13T16:37:50.303Z,15.50
2022-10-13T16:40:16.899Z,15.49
2022-10-13T16:42:44.902Z,15.48
2022-10-13T16:45:11.456Z,15.50
2022-10-13T16:47:40.307Z,15.48
2022-10-13T16:50:09.917Z,15.50
2022-10-13T16:52:37.428Z,15.50
2022-10-13T16:55:05.509Z,15.47
2022-10-13T16:57:32.648Z,15.46
2022-10-13T16:59:59.222Z,15.45
2022-10-13T17:02:28.122Z,15.47
2022-10-13T17:04:54.745Z,15.46
2022-10-13T17:07:21.511Z,15.46
2022-10-13T17:09:48.228Z,15.43
2022-10-13T17:12:14.787Z,15.44
2022-10-13T17:14:41.337Z,15.43
2022-10-13T17:17:07.853Z,15.41
2022-10-13T17:19:39.659Z,15.40
2022-10-13T17:22:06.339Z,15.42
2022-10-13T17:24:32.871Z,15.41
2022-10-13T17:26:59.374Z,15.39
2022-10-13T17:29:25.878Z,15.38
2022-10-13T17:31:53.173Z,15.35
2022-10-13T17:34:21.623Z,15.36
2022-10-13T17:36:50.990Z,15.36
2022-10-13T17:39:17.639Z,15.32
2022-10-13T17:41:44.365Z,15.31
2022-10-13T17:44:11.609Z,15.32
2022-10-13T17:46:39.137Z,15.31
2022-10-13T17:49:11.267Z,15.29
2022-10-13T17:51:39.132Z,15.28
2022-10-13T17:54:08.225Z,15.26
2022-10-13T17:56:38.125Z,15.26
2022-10-13T17:59:04.694Z,15.21
2022-10-13T18:01:34.195Z,15.23
2022-10-13T18:04:03.715Z,15.25
2022-10-13T18:06:43.856Z,15.24
2022-10-13T18:09:21.581Z,15.22
2022-10-13T18:11:51.020Z,15.20
2022-10-13T18:14:19.828Z,15.21
2022-10-13T18:16:49.421Z,15.20
2022-10-13T18:19:16.382Z,15.19
2022-10-13T18:21:43.251Z,15.18
2022-10-13T18:24:10.399Z,15.17
2022-10-13T18:26:36.845Z,15.16
2022-10-13T18:29:05.880Z,15.14
2022-10-13T18:31:36.289Z,15.11
2022-10-13T18:34:08.796Z,15.13
2022-10-13T18:36:37.934Z,15.13
2022-10-13T18:39:14.438Z,15.10
2022-10-13T18:41:44.868Z,15.10
2022-10-13T18:44:11.739Z,15.08
2022-10-13T18:46:39.479Z,15.04
2022-10-13T18:49:07.812Z,15.07
2022-10-13T18:51:37.010Z,15.07
2022-10-13T18:54:05.072Z,15.08
2022-10-13T18:56:32.822Z,15.06
2022-10-13T18:59:01.428Z,15.03
2022-10-13T19:01:30.278Z,15.05
2022-10-13T19:03:57.208Z,15.05
2022-10-13T19:06:28.563Z,15.03
2022-10-13T19:08:57.453Z,15.04
2022-10-13T19:11:24.758Z,15.02
2022-10-13T19:13:52.061Z,15.01
2022-10-13T19:16:22.092Z,15.00
2022-10-13T19:18:50.187Z,15.01
2022-10-13T19:21:17.778Z,15.00
2022-10-13T19:23:44.283Z,14.98
2022-10-13T19:26:30.642Z,14.97
2022-10-13T19:29:10.017Z,14.96
2022-10-13T19:31:38.567Z,14.95
2022-10-13T19:34:11.832Z,14.96
2022-10-13T19:36:45.077Z,14.94
2022-10-13T19:39:21.600Z,14.88
2022-10-13T19:41:49.619Z,14.93
2022-10-13T19:44:18.305Z,14.92
2022-10-13T19:46:46.478Z,14.91
2022-10-13T19:49:15.562Z,14.92
2022-10-13T19:51:44.355Z,14.91
2022-10-13T19:54:11.238Z,14.91
2022-10-13T19:56:39.210Z,14.89
2022-10-13T19:59:07.720Z,14.88
2022-10-13T20:01:39.925Z,14.88
2022-10-13T20:04:13.133Z,14.84
2022-10-13T20:06:41.307Z,14.88
2022-10-13T20:09:08.495Z,14.87
2022-10-13T20:11:35.052Z,14.87
2022-10-13T20:14:01.626Z,14.87
2022-10-13T20:16:28.166Z,14.87
2022-10-13T20:18:57.576Z,14.87
2022-10-13T20:21:25.906Z,14.86
2022-10-13T20:23:52.564Z,14.87
2022-10-13T20:26:19.597Z,14.85
2022-10-13T20:28:47.402Z,14.85
2022-10-13T20:31:16.083Z,14.85
2022-10-13T20:33:43.308Z,14.84
2022-10-13T20:36:15.836Z,14.83
2022-10-13T20:38:42.438Z,14.84
2022-10-13T20:41:10.746Z,14.82
2022-10-13T20:43:37.228Z,14.84
2022-10-13T20:46:07.275Z,14.82
2022-10-13T20:48:51.459Z,14.83
2022-10-13T20:51:23.521Z,14.80
2022-10-13T20:53:50.178Z,14.82
2022-10-13T20:56:22.731Z,14.80
2022-10-13T20:58:49.948Z,14.79
2022-10-13T21:01:20.398Z,14.78
2022-10-13T21:03:50.628Z,14.80
2022-10-13T21:06:17.143Z,14.80
2022-10-13T21:08:47.161Z,14.78
2022-10-13T21:11:15.660Z,14.79
2022-10-13T21:13:43.876Z,14.77
2022-10-13T21:16:13.386Z,14.77
2022-10-13T21:18:40.339Z,14.76
2022-10-13T21:21:10.006Z,14.76
2022-10-13T21:23:37.503Z,14.75
2022-10-13T21:26:05.750Z,14.73
2022-10-13T21:28:33.588Z,14.72
2022-10-13T21:31:09.674Z,14.72
2022-10-13T21:33:38.390Z,14.72
2022-10-13T21:36:20.091Z,14.70
2022-10-13T21:38:47.847Z,14.71
2022-10-13T21:41:15.039Z,14.70
2022-10-13T21:43:42.562Z,14.67
2022-10-13T21:46:19.114Z,14.67
2022-10-13T21:48:49.981Z,14.65
2022-10-13T21:51:22.332Z,14.67
2022-10-13T21:53:54.123Z,14.66
2022-10-13T21:56:21.912Z,14.66
2022-10-13T21:58:49.153Z,14.64
2022-10-13T22:01:17.711Z,14.64
2022-10-13T22:03:47.068Z,14.61
2022-10-13T22:06:19.058Z,14.62
2022-10-13T22:08:48.171Z,14.63
2022-10-13T22:11:21.624Z,14.59
2022-10-13T22:13:48.211Z,14.62
2022-10-13T22:16:20.756Z,14.62
2022-10-13T22:18:47.868Z,14.61
2022-10-13T22:21:17.524Z,14.61
2022-10-13T22:23:45.162Z,14.59
2022-10-13T22:26:12.672Z,14.56
2022-10-13T22:28:39.941Z,14.55
2022-10-13T22:31:08.290Z,14.56
2022-10-13T22:33:36.758Z,14.58
2022-10-13T22:36:11.889Z,14.57
2022-10-13T22:38:38.472Z,14.55
2022-10-13T22:41:07.902Z,14.57
2022-10-13T22:43:36.063Z,14.56
2022-10-13T22:46:16.327Z,14.56
2022-10-13T22:48:43.124Z,14.56
2022-10-13T22:51:12.788Z,14.56
2022-10-13T22:53:39.438Z,14.54
2022-10-13T22:56:12.760Z,14.54
2022-10-13T22:58:39.755Z,14.54
2022-10-13T23:01:08.762Z,14.55
2022-10-13T23:03:36.226Z,14.53
2022-10-13T23:06:03.485Z,14.54
2022-10-13T23:08:30.234Z,14.53
2022-10-13T23:10:57.624Z,14.54
2022-10-13T23:13:24.256Z,14.54
2022-10-13T23:15:52.700Z,14.54
2022-10-13T23:18:24.349Z,14.52
2022-10-13T23:20:54.429Z,14.53
2022-10-13T23:23:25.504Z,14.53
2022-10-13T23:25:51.950Z,14.52
2022-10-13T23:28:18.577Z,14.53
2022-10-13T23:30:45.164Z,14.53
2022-10-13T23:33:11.763Z,14.52
2022-10-13T23:35:39.552Z,14.54
2022-10-13T23:38:06.114Z,14.50
2022-10-13T23:40:34.560Z,14.54
2022-10-13T23:43:01.062Z,14.52
2022-10-13T23:45:27.584Z,14.53
2022-10-13T23:47:54.091Z,14.53
2022-10-13T23:50:21.663Z,14.50
2022-10-13T23:52:48.166Z,14.53
2022-10-13T23:55:15.137Z,14.52
2022-10-13T23:57:41.630Z,14.52
